Terminal Aerodrome Forecast
Issued by NWS

Home | Current Version | Previous Version | Text Only | Print | Product List | Glossary On
Versions: 1 2 3 4 5 6 7 8 9 10 11 12 13 14 15 16 17 18 19 20
000
FTUS43 KDTX 211900 AAA
TAFMBS
TAF AMD
KMBS 211939Z 2120/2218 07005KT P6SM SCT045 BKN200
     FM220300 10003KT 2SM SHRA BR OVC030
     FM221300 14005KT 4SM -SHRA BR BKN020 OVC045=

USA.gov is the U.S. government's official web portal to all federal, state and local government web resources and services.